Time;durP1;ratioP1;P1;durP2;ratioP2;P2;SDS_P1;SDS_P2;PMS_P1;PMS_P2;Temp;Humidity;BMP_temperature;BMP_pressure;BME280_temperature;BME280_humidity;BME280_pressure;Samples;Min_cycle;Max_cycle;Signal;HPM_P1;HPM_P2
2022/10/18 00:01:36;;;;;;;9.87;5.90;;;15.00;99.90;;;;;;6247124;23;20191;-86
2022/10/18 00:04:02;;;;;;;10.40;6.53;;;15.00;99.90;;;;;;6245877;23;20187;-90
2022/10/18 00:06:27;;;;;;;8.43;5.80;;;15.00;99.90;;;;;;6245796;23;20621;-89
2022/10/18 00:08:53;;;;;;;11.90;7.17;;;14.90;99.90;;;;;;6246276;23;20152;-87
2022/10/18 00:11:19;;;;;;;7.90;6.13;;;15.10;99.90;;;;;;6248236;22;20604;-89
2022/10/18 00:13:44;;;;;;;8.03;5.67;;;15.10;99.90;;;;;;6245953;23;20167;-90
2022/10/18 00:16:14;;;;;;;10.67;6.63;;;15.30;99.90;;;;;;6246510;23;20179;-88
2022/10/18 00:18:41;;;;;;;12.37;6.73;;;15.00;99.90;;;;;;6246982;23;20159;-88
2022/10/18 00:21:13;;;;;;;8.40;6.67;;;15.50;99.90;;;;;;6251289;23;20171;-86
2022/10/18 00:23:39;;;;;;;10.63;7.87;;;15.00;99.90;;;;;;6252734;23;20251;-89
2022/10/18 00:26:24;;;;;;;9.87;8.40;;;15.00;99.90;;;;;;6245570;23;20207;-87
2022/10/18 00:28:56;;;;;;;10.57;7.40;;;15.10;99.90;;;;;;6244916;23;20204;-87
2022/10/18 00:31:23;;;;;;;9.70;7.50;;;15.20;99.90;;;;;;6244893;23;20590;-88
2022/10/18 00:33:51;;;;;;;10.13;7.27;;;15.10;99.90;;;;;;6247560;22;20156;-87
2022/10/18 00:36:17;;;;;;;10.50;8.00;;;15.00;99.90;;;;;;6246822;23;20229;-88
2022/10/18 00:38:43;;;;;;;9.77;7.97;;;15.10;99.90;;;;;;6246733;23;20246;-87
2022/10/18 00:41:12;;;;;;;13.87;7.97;;;15.10;99.90;;;;;;6246878;23;20155;-88
2022/10/18 00:44:10;;;;;;;12.27;8.60;;;15.10;99.90;;;;;;6246839;23;20218;-87
2022/10/18 00:46:38;;;;;;;12.53;8.63;;;15.10;99.90;;;;;;6180899;23;20487;-84
2022/10/18 00:49:38;;;;;;;14.27;8.73;;;15.00;99.90;;;;;;6246885;23;20191;-87
2022/10/18 00:52:08;;;;;;;11.07;8.83;;;15.20;99.90;;;;;;6243253;23;20214;-86
2022/10/18 00:54:36;;;;;;;10.37;8.67;;;15.20;99.90;;;;;;6246579;23;20236;-87
2022/10/18 00:57:03;;;;;;;11.53;9.00;;;15.10;99.90;;;;;;6246421;23;20226;-87
2022/10/18 00:59:29;;;;;;;14.00;9.27;;;15.10;99.90;;;;;;6246812;23;20159;-86
2022/10/18 01:01:54;;;;;;;13.13;8.60;;;15.00;99.90;;;;;;6246767;23;20187;-86
2022/10/18 01:04:21;;;;;;;11.23;8.93;;;15.00;99.90;;;;;;6246614;23;20266;-87
2022/10/18 01:07:02;;;;;;;13.43;9.30;;;15.00;99.90;;;;;;6246705;23;20175;-86
2022/10/18 01:09:43;;;;;;;10.53;8.53;;;15.00;99.90;;;;;;6246470;23;20155;-88
2022/10/18 01:12:25;;;;;;;11.50;8.67;;;15.00;99.90;;;;;;6247035;23;20148;-85
2022/10/18 01:15:14;;;;;;;12.53;9.30;;;15.00;99.90;;;;;;6246766;23;20486;-87
2022/10/18 01:17:58;;;;;;;14.77;9.50;;;15.00;99.90;;;;;;6246702;23;20162;-86
2022/10/18 01:20:58;;;;;;;12.93;8.83;;;15.00;99.90;;;;;;6246788;23;20156;-86
2022/10/18 01:24:01;;;;;;;11.77;9.17;;;15.00;99.90;;;;;;6246457;23;20228;-85
2022/10/18 01:26:45;;;;;;;11.40;8.17;;;15.00;99.90;;;;;;6246420;23;20186;-85
2022/10/18 01:29:33;;;;;;;14.20;9.23;;;15.00;99.90;;;;;;6246755;23;20159;-86
2022/10/18 01:32:06;;;;;;;10.20;8.23;;;15.00;99.90;;;;;;6246720;23;20152;-84
2022/10/18 01:34:35;;;;;;;13.73;9.10;;;15.00;99.90;;;;;;6247279;23;20187;-86
2022/10/18 01:37:04;;;;;;;12.73;8.70;;;15.00;99.90;;;;;;6246245;23;20175;-86
2022/10/18 01:39:36;;;;;;;14.53;8.67;;;15.00;99.90;;;;;;6246328;23;20586;-87
2022/10/18 01:42:06;;;;;;;16.93;8.50;;;14.90;99.90;;;;;;6246394;23;20476;-87
2022/10/18 01:44:33;;;;;;;12.50;8.37;;;15.00;99.90;;;;;;6246340;23;20598;-85
2022/10/18 01:47:00;;;;;;;10.37;8.37;;;14.90;99.90;;;;;;6246394;23;20622;-85
2022/10/18 01:49:26;;;;;;;16.37;8.67;;;15.00;99.90;;;;;;6246336;23;20242;-87
2022/10/18 01:51:52;;;;;;;9.43;7.83;;;15.20;99.90;;;;;;6246311;23;20479;-86
2022/10/18 01:54:23;;;;;;;12.07;8.77;;;15.00;99.90;;;;;;6246299;23;20163;-87
2022/10/18 01:56:48;;;;;;;10.63;8.33;;;15.00;99.90;;;;;;6246150;23;20195;-86
2022/10/18 01:59:44;;;;;;;10.47;8.50;;;16.10;99.90;;;;;;6246307;23;20181;-88
2022/10/18 02:02:40;;;;;;;11.37;8.33;;;14.90;99.90;;;;;;6246370;23;20150;-84
2022/10/18 02:05:35;;;;;;;9.03;7.67;;;14.90;99.90;;;;;;6246075;23;20527;-84
2022/10/18 02:08:12;;;;;;;9.60;8.37;;;14.90;99.90;;;;;;6246037;23;20148;-86
2022/10/18 02:10:45;;;;;;;10.23;8.10;;;14.90;99.90;;;;;;6245968;23;20151;-86
2022/10/18 02:13:14;;;;;;;9.93;8.30;;;14.90;99.90;;;;;;6246348;23;20150;-85
2022/10/18 02:15:44;;;;;;;9.07;7.97;;;14.90;99.90;;;;;;6245947;23;20180;-85
2022/10/18 02:18:22;;;;;;;9.90;8.00;;;15.10;99.90;;;;;;6246351;23;20152;-87
2022/10/18 02:20:48;;;;;;;11.03;8.80;;;14.90;99.90;;;;;;6247792;22;20144;-87
2022/10/18 02:23:18;;;;;;;12.10;8.70;;;14.80;99.90;;;;;;6247282;23;20609;-87
2022/10/18 02:25:44;;;;;;;9.47;8.47;;;14.80;99.90;;;;;;6248492;23;20234;-87
2022/10/18 02:28:10;;;;;;;10.10;8.13;;;14.80;99.90;;;;;;6249077;23;20578;-87
2022/10/18 02:30:43;;;;;;;16.13;9.00;;;15.20;99.90;;;;;;6248540;23;20192;-88
2022/10/18 02:33:23;;;;;;;11.20;8.07;;;15.20;99.90;;;;;;6247787;23;20154;-87
2022/10/18 02:35:55;;;;;;;15.03;9.93;;;14.80;99.90;;;;;;6246044;23;20189;-87
2022/10/18 02:38:24;;;;;;;11.77;9.43;;;14.80;99.90;;;;;;6246422;23;20174;-89
2022/10/18 02:40:49;;;;;;;13.53;9.73;;;14.90;99.90;;;;;;6246832;23;20166;-88
2022/10/18 02:43:15;;;;;;;13.27;9.43;;;14.80;99.90;;;;;;6246319;23;20159;-86
2022/10/18 02:45:41;;;;;;;11.63;8.50;;;14.80;99.90;;;;;;6245966;23;20202;-86
2022/10/18 02:48:06;;;;;;;14.20;9.37;;;14.80;99.90;;;;;;6245988;23;20243;-85
2022/10/18 02:50:32;;;;;;;13.60;9.40;;;14.80;99.90;;;;;;6246156;23;20214;-87
2022/10/18 02:52:58;;;;;;;13.50;9.60;;;14.80;99.90;;;;;;6246038;23;20205;-86
2022/10/18 02:55:23;;;;;;;14.13;9.60;;;15.00;99.90;;;;;;6245540;23;20228;-85
2022/10/18 02:57:49;;;;;;;16.23;9.20;;;14.80;99.90;;;;;;6246392;23;20182;-87
2022/10/18 03:00:14;;;;;;;11.87;9.43;;;14.80;99.90;;;;;;6246299;23;20579;-88
2022/10/18 03:02:40;;;;;;;13.50;9.93;;;14.80;99.90;;;;;;6246245;23;20648;-86
2022/10/18 03:05:06;;;;;;;15.33;9.40;;;14.90;99.90;;;;;;6246483;23;20190;-88
2022/10/18 03:07:31;;;;;;;14.40;9.67;;;14.80;99.90;;;;;;6245707;23;20187;-86
2022/10/18 03:09:57;;;;;;;14.53;10.27;;;15.10;99.90;;;;;;6245423;23;20605;-88
2022/10/18 03:12:22;;;;;;;15.10;10.17;;;14.70;99.90;;;;;;6245686;23;20155;-87
2022/10/18 03:14:48;;;;;;;17.27;10.10;;;14.70;99.90;;;;;;6245433;23;20170;-86
2022/10/18 03:17:13;;;;;;;13.57;9.17;;;14.80;99.90;;;;;;6245495;23;20180;-86
2022/10/18 03:19:39;;;;;;;14.77;10.10;;;14.90;99.90;;;;;;6245651;23;20195;-85
2022/10/18 03:22:05;;;;;;;13.23;9.40;;;14.60;99.90;;;;;;6245376;23;20159;-86
2022/10/18 03:24:30;;;;;;;14.63;10.23;;;14.80;99.90;;;;;;6245338;23;20267;-88
2022/10/18 03:26:56;;;;;;;12.17;10.13;;;14.80;99.90;;;;;;6246954;22;20167;-88
2022/10/18 03:29:21;;;;;;;12.30;8.93;;;14.70;99.90;;;;;;6245400;23;20462;-87
2022/10/18 03:31:47;;;;;;;12.57;9.13;;;14.80;99.90;;;;;;6247340;22;20159;-87
2022/10/18 03:34:14;;;;;;;11.77;9.03;;;14.80;99.90;;;;;;6245456;23;20163;-88
2022/10/18 03:36:40;;;;;;;11.97;9.17;;;14.80;99.90;;;;;;6245949;23;20547;-89
2022/10/18 03:39:06;;;;;;;15.00;10.63;;;15.10;99.90;;;;;;6245765;23;20159;-88
2022/10/18 03:41:31;;;;;;;19.27;10.97;;;15.10;99.90;;;;;;6245354;23;20159;-86
2022/10/18 03:43:57;;;;;;;17.17;11.37;;;14.90;99.90;;;;;;6245047;23;20263;-87
2022/10/18 03:46:23;;;;;;;15.87;10.17;;;14.80;99.90;;;;;;6245356;23;20484;-88
2022/10/18 03:48:48;;;;;;;19.77;12.17;;;14.80;99.90;;;;;;6245520;23;20259;-87
2022/10/18 03:51:14;;;;;;;19.47;13.03;;;14.80;99.90;;;;;;6245274;23;20159;-88
2022/10/18 03:53:39;;;;;;;19.07;12.97;;;14.80;99.90;;;;;;6245236;23;20190;-87
2022/10/18 03:56:05;;;;;;;19.47;12.63;;;14.80;99.90;;;;;;6245345;23;20675;-88
2022/10/18 03:58:31;;;;;;;17.53;12.27;;;14.90;99.90;;;;;;6245784;23;20153;-86
2022/10/18 04:00:56;;;;;;;20.43;12.77;;;14.90;99.90;;;;;;6245333;23;20169;-87
2022/10/18 04:03:22;;;;;;;15.83;12.30;;;15.00;99.90;;;;;;6245607;23;20594;-87
2022/10/18 04:05:49;;;;;;;17.03;11.97;;;14.90;99.90;;;;;;6245281;23;20199;-85
2022/10/18 04:08:15;;;;;;;21.13;12.13;;;14.90;99.90;;;;;;6245192;23;20163;-87
2022/10/18 04:10:41;;;;;;;16.30;11.37;;;16.30;99.90;;;;;;6245883;23;20474;-89
2022/10/18 04:13:08;;;;;;;17.97;11.47;;;15.00;99.90;;;;;;6247386;22;20586;-87
2022/10/18 04:15:33;;;;;;;19.17;12.13;;;15.50;99.90;;;;;;6246861;22;20229;-86
2022/10/18 04:17:59;;;;;;;17.70;12.83;;;15.10;99.90;;;;;;6245530;23;20163;-88
2022/10/18 04:20:25;;;;;;;21.73;13.83;;;15.10;99.90;;;;;;6245538;23;20210;-86
2022/10/18 04:22:53;;;;;;;37.13;25.60;;;15.00;99.90;;;;;;6245754;23;20163;-88
2022/10/18 04:25:20;;;;;;;34.17;22.37;;;15.00;99.90;;;;;;6245598;23;20196;-86
2022/10/18 04:27:45;;;;;;;27.33;18.30;;;15.00;99.90;;;;;;6245533;23;20167;-87
2022/10/18 04:30:11;;;;;;;19.60;12.93;;;15.00;99.90;;;;;;6245675;23;20618;-88
2022/10/18 04:32:36;;;;;;;22.33;13.00;;;15.00;99.90;;;;;;6246037;23;20602;-88
2022/10/18 04:35:03;;;;;;;25.07;14.20;;;14.90;99.90;;;;;;6245650;23;20610;-90
2022/10/18 04:37:29;;;;;;;26.47;18.17;;;15.00;99.90;;;;;;6245978;23;20162;-88
2022/10/18 04:39:55;;;;;;;21.13;14.23;;;15.40;99.90;;;;;;6245689;23;20191;-88
2022/10/18 04:42:21;;;;;;;23.23;14.43;;;15.10;99.90;;;;;;6246385;23;20243;-88
2022/10/18 04:44:46;;;;;;;24.07;14.07;;;15.10;99.90;;;;;;6246110;23;20366;-89
2022/10/18 04:47:12;;;;;;;23.73;15.07;;;16.00;99.90;;;;;;6246419;23;20229;-87
2022/10/18 04:49:37;;;;;;;28.83;16.37;;;15.20;99.90;;;;;;6246077;23;20243;-88
2022/10/18 04:52:03;;;;;;;30.87;16.50;;;16.00;99.90;;;;;;6246476;23;20162;-87
2022/10/18 04:54:29;;;;;;;27.13;16.33;;;15.10;99.90;;;;;;6246543;23;20187;-88
2022/10/18 04:56:54;;;;;;;29.90;16.30;;;15.10;99.90;;;;;;6245795;23;20525;-88
2022/10/18 04:59:20;;;;;;;25.60;15.40;;;15.10;99.90;;;;;;6246906;23;20164;-88
2022/10/18 05:01:45;;;;;;;25.83;16.33;;;15.20;99.90;;;;;;6246435;23;20159;-87
2022/10/18 05:04:11;;;;;;;30.70;16.90;;;15.50;99.90;;;;;;6245837;23;20187;-89
2022/10/18 05:06:37;;;;;;;27.67;16.00;;;15.10;99.90;;;;;;6245262;23;20246;-87
2022/10/18 05:09:02;;;;;;;34.73;17.97;;;15.90;99.90;;;;;;6245242;23;20148;-84
2022/10/18 05:11:28;;;;;;;31.80;18.37;;;15.20;99.90;;;;;;6244969;23;20246;-87
2022/10/18 05:13:54;;;;;;;35.40;18.47;;;15.20;99.90;;;;;;6245579;23;20217;-87
2022/10/18 05:16:19;;;;;;;33.73;18.13;;;15.10;99.90;;;;;;6245367;23;20238;-89
2022/10/18 05:18:45;;;;;;;31.70;18.00;;;15.10;99.90;;;;;;6245922;23;20157;-88
2022/10/18 05:21:11;;;;;;;31.77;18.73;;;15.00;99.90;;;;;;6247713;23;20170;-85
2022/10/18 05:23:37;;;;;;;32.87;17.70;;;15.80;99.90;;;;;;6246951;23;20745;-88
2022/10/18 05:26:05;;;;;;;30.13;18.13;;;15.10;99.90;;;;;;6247033;23;20272;-88
2022/10/18 05:28:31;;;;;;;30.37;18.97;;;15.10;99.90;;;;;;6246918;23;20628;-86
2022/10/18 05:31:01;;;;;;;32.43;18.73;;;15.10;99.90;;;;;;6246962;23;20625;-88
2022/10/18 05:33:27;;;;;;;36.80;19.67;;;15.10;99.90;;;;;;6246861;23;20557;-89
2022/10/18 05:35:53;;;;;;;34.83;19.40;;;15.80;99.90;;;;;;6246583;23;20180;-87
2022/10/18 05:38:19;;;;;;;34.70;19.90;;;15.40;99.90;;;;;;6247025;23;20658;-88
2022/10/18 05:40:44;;;;;;;36.27;19.90;;;15.10;99.90;;;;;;6247393;23;20243;-88
2022/10/18 05:43:10;;;;;;;31.83;18.87;;;15.10;99.90;;;;;;6246906;23;20159;-87
2022/10/18 05:45:35;;;;;;;35.33;20.47;;;15.50;99.90;;;;;;6249171;23;20201;-90
2022/10/18 05:48:01;;;;;;;38.53;20.50;;;15.20;99.90;;;;;;6246529;23;20537;-84
2022/10/18 05:50:27;;;;;;;33.97;20.10;;;15.40;99.90;;;;;;6246598;23;20156;-85
2022/10/18 05:52:56;;;;;;;38.77;19.33;;;15.00;99.90;;;;;;6246795;23;20158;-87
2022/10/18 05:55:21;;;;;;;34.40;19.90;;;15.10;99.90;;;;;;6247940;22;20493;-86
2022/10/18 05:57:50;;;;;;;35.30;19.00;;;15.10;99.90;;;;;;6246508;23;20289;-86
2022/10/18 06:00:17;;;;;;;34.13;18.47;;;15.10;99.90;;;;;;6246404;23;20159;-86
2022/10/18 06:02:43;;;;;;;35.20;19.53;;;15.10;99.90;;;;;;6246391;23;20161;-86
2022/10/18 06:05:08;;;;;;;34.97;20.83;;;15.10;99.90;;;;;;6246400;23;20194;-86
2022/10/18 06:07:34;;;;;;;30.07;18.97;;;14.90;99.90;;;;;;6246543;23;20160;-88
2022/10/18 06:09:59;;;;;;;33.67;20.10;;;15.00;99.90;;;;;;6246441;23;20588;-87
2022/10/18 06:12:25;;;;;;;27.63;18.57;;;15.00;99.90;;;;;;6246354;23;20594;-87
2022/10/18 06:14:51;;;;;;;27.70;18.23;;;15.00;99.90;;;;;;6246167;23;20163;-87
2022/10/18 06:17:16;;;;;;;28.60;18.37;;;15.20;99.90;;;;;;6246372;23;20205;-87
2022/10/18 06:19:45;;;;;;;28.40;17.43;;;15.00;99.90;;;;;;6246945;23;20167;-86
2022/10/18 06:22:11;;;;;;;26.43;17.47;;;15.10;99.90;;;;;;6247536;22;20206;-86
2022/10/18 06:24:37;;;;;;;31.33;19.23;;;14.90;99.90;;;;;;6246232;23;20648;-86
2022/10/18 06:27:08;;;;;;;30.67;19.03;;;16.00;99.90;;;;;;6246066;23;20178;-87
2022/10/18 06:29:37;;;;;;;37.07;19.80;;;14.90;99.90;;;;;;6246765;23;20151;-86
2022/10/18 06:32:04;;;;;;;34.03;20.07;;;14.80;99.90;;;;;;6246081;23;20208;-85
2022/10/18 06:34:31;;;;;;;32.37;19.47;;;15.60;99.90;;;;;;6246173;23;20158;-86
2022/10/18 06:36:56;;;;;;;30.63;19.60;;;15.10;99.90;;;;;;6246138;23;20180;-87
2022/10/18 06:39:22;;;;;;;34.87;21.40;;;16.30;99.90;;;;;;6246374;23;20250;-86
2022/10/18 06:41:47;;;;;;;35.30;20.37;;;14.90;99.90;;;;;;6247289;22;20234;-86
2022/10/18 06:44:13;;;;;;;35.23;21.13;;;14.90;99.90;;;;;;6247713;22;20238;-86
2022/10/18 06:46:44;;;;;;;40.63;21.53;;;14.90;99.90;;;;;;6245784;23;20175;-86
2022/10/18 06:49:10;;;;;;;37.20;21.37;;;15.00;99.90;;;;;;6245960;23;20198;-85
2022/10/18 06:51:36;;;;;;;34.13;20.10;;;14.90;99.90;;;;;;6245727;23;20156;-86
2022/10/18 06:54:02;;;;;;;39.87;22.00;;;16.20;99.90;;;;;;6246137;23;20229;-85
2022/10/18 06:56:28;;;;;;;39.57;21.53;;;15.00;99.90;;;;;;6245628;23;20282;-85
2022/10/18 06:58:53;;;;;;;43.00;22.60;;;15.10;99.90;;;;;;6246102;23;20162;-87
2022/10/18 07:01:19;;;;;;;47.40;24.60;;;15.00;99.90;;;;;;6245827;23;20163;-84
2022/10/18 07:03:46;;;;;;;49.10;24.63;;;15.40;99.90;;;;;;6245641;23;20246;-86
2022/10/18 07:06:14;;;;;;;51.00;25.57;;;15.00;99.90;;;;;;6245727;23;20606;-86
2022/10/18 07:08:40;;;;;;;57.33;27.33;;;15.80;99.90;;;;;;6245987;23;20156;-86
2022/10/18 07:11:07;;;;;;;56.00;28.17;;;15.10;99.90;;;;;;6245680;23;20156;-86
2022/10/18 07:13:33;;;;;;;69.77;29.43;;;15.00;99.90;;;;;;6245549;23;20151;-86
2022/10/18 07:16:00;;;;;;;59.27;29.43;;;15.10;99.90;;;;;;6245594;23;20181;-87
2022/10/18 07:18:26;;;;;;;72.17;31.60;;;15.10;99.90;;;;;;6245507;23;20162;-86
2022/10/18 07:20:51;;;;;;;71.60;30.03;;;15.30;99.90;;;;;;6245498;23;20218;-86
2022/10/18 07:23:17;;;;;;;76.17;29.77;;;15.10;99.90;;;;;;6245677;23;20228;-87
2022/10/18 07:25:43;;;;;;;68.33;30.50;;;15.10;99.90;;;;;;6244815;23;20191;-86
2022/10/18 07:28:08;;;;;;;78.87;31.47;;;15.20;99.90;;;;;;6247892;22;20228;-83
2022/10/18 07:30:34;;;;;;;82.37;31.90;;;16.10;99.90;;;;;;6245636;23;20242;-88
2022/10/18 07:32:59;;;;;;;79.33;33.73;;;15.10;99.90;;;;;;6246672;23;20210;-87
2022/10/18 07:35:25;;;;;;;72.63;32.17;;;15.20;99.90;;;;;;6246090;23;20181;-87
2022/10/18 07:37:51;;;;;;;82.23;31.83;;;15.30;99.90;;;;;;6247490;22;20154;-86
2022/10/18 07:40:16;;;;;;;79.47;32.83;;;15.30;99.90;;;;;;6245421;23;20209;-85
2022/10/18 07:42:42;;;;;;;83.77;33.50;;;15.30;99.90;;;;;;6245143;23;20172;-86
2022/10/18 07:45:08;;;;;;;83.00;33.23;;;15.40;99.90;;;;;;6245986;23;20202;-86
2022/10/18 07:47:33;;;;;;;88.07;34.83;;;15.40;99.90;;;;;;6245416;23;20159;-88
2022/10/18 07:49:59;;;;;;;84.53;34.97;;;15.40;99.90;;;;;;6245327;23;20156;-87
2022/10/18 07:52:25;;;;;;;90.73;34.53;;;15.60;99.90;;;;;;6245314;23;20156;-87
2022/10/18 07:54:50;;;;;;;91.73;36.13;;;15.50;99.90;;;;;;6245193;23;20167;-87
2022/10/18 07:57:16;;;;;;;92.10;36.07;;;15.70;99.90;;;;;;6246681;22;20637;-86
2022/10/18 07:59:45;;;;;;;92.70;35.50;;;15.20;99.90;;;;;;6245382;23;20190;-85
2022/10/18 08:02:10;;;;;;;89.67;36.03;;;15.30;99.90;;;;;;6245228;23;20158;-84
2022/10/18 08:04:36;;;;;;;87.07;36.23;;;15.50;99.90;;;;;;6245217;23;20197;-85
2022/10/18 08:07:01;;;;;;;103.40;36.23;;;15.60;99.90;;;;;;6245598;23;20232;-87
2022/10/18 08:09:27;;;;;;;78.43;35.17;;;15.40;99.90;;;;;;6245172;23;20606;-86
2022/10/18 08:11:52;;;;;;;86.83;36.27;;;15.40;99.90;;;;;;6245332;23;20152;-85
2022/10/18 08:14:18;;;;;;;91.83;36.17;;;15.40;99.90;;;;;;6247392;22;20155;-85
2022/10/18 08:16:44;;;;;;;82.90;35.20;;;15.40;99.90;;;;;;6244976;23;20179;-87
2022/10/18 08:19:09;;;;;;;82.37;35.47;;;15.70;99.90;;;;;;6245391;23;20213;-88
2022/10/18 08:21:35;;;;;;;97.33;36.77;;;15.50;99.90;;;;;;6246304;23;20458;-88
2022/10/18 08:24:00;;;;;;;94.93;37.20;;;15.50;99.90;;;;;;6245176;23;20187;-85
2022/10/18 08:26:26;;;;;;;92.50;37.50;;;15.40;99.90;;;;;;6245231;23;20681;-85
2022/10/18 08:28:51;;;;;;;96.90;37.97;;;15.50;99.90;;;;;;6246782;23;20532;-86
2022/10/18 08:31:18;;;;;;;91.30;36.73;;;15.60;99.90;;;;;;6247527;23;20155;-87
2022/10/18 08:33:44;;;;;;;100.77;37.73;;;15.70;99.90;;;;;;6245315;23;20258;-86
2022/10/18 08:36:13;;;;;;;109.40;40.20;;;15.80;99.90;;;;;;6244639;23;20176;-88
2022/10/18 08:38:40;;;;;;;104.47;38.67;;;15.80;99.90;;;;;;6244940;23;20162;-87
2022/10/18 08:41:36;;;;;;;94.37;37.37;;;15.80;99.90;;;;;;6244967;23;20238;-88
2022/10/18 08:44:29;;;;;;;89.70;37.13;;;15.80;99.90;;;;;;6244987;23;20207;-87
2022/10/18 08:47:20;;;;;;;83.07;34.20;;;15.80;99.90;;;;;;6240650;23;20172;-87
2022/10/18 08:49:51;;;;;;;83.70;36.73;;;15.90;99.90;;;;;;6230537;23;20166;-87
2022/10/18 08:52:44;;;;;;;91.43;37.33;;;15.90;99.90;;;;;;6245026;23;20156;-86
2022/10/18 08:55:22;;;;;;;88.30;36.67;;;15.90;99.90;;;;;;6246171;23;20586;-87
2022/10/18 08:57:49;;;;;;;94.30;38.90;;;16.00;99.90;;;;;;6246794;23;20237;-86
2022/10/18 09:00:17;;;;;;;109.03;39.67;;;16.30;99.90;;;;;;6248394;22;20595;-86
2022/10/18 09:03:01;;;;;;;108.77;40.63;;;16.10;99.90;;;;;;6246774;23;20594;-88
2022/10/18 09:05:35;;;;;;;110.27;40.07;;;16.20;99.90;;;;;;6246665;23;20518;-86
2022/10/18 09:08:21;;;;;;;99.13;39.37;;;16.60;99.90;;;;;;6246643;23;20151;-84
2022/10/18 09:11:05;;;;;;;93.57;37.33;;;16.20;99.90;;;;;;6246663;23;20159;-87
2022/10/18 09:13:55;;;;;;;85.73;36.40;;;16.20;99.90;;;;;;6246761;23;20152;-85
2022/10/18 09:16:55;;;;;;;94.57;38.67;;;16.20;99.90;;;;;;6246883;23;20228;-85
2022/10/18 09:19:47;;;;;;;90.97;38.53;;;16.20;99.90;;;;;;6246616;23;20152;-87
2022/10/18 09:22:17;;;;;;;81.63;35.40;;;16.30;99.90;;;;;;6246386;23;20155;-85
2022/10/18 09:25:10;;;;;;;76.70;33.60;;;16.30;99.90;;;;;;6247383;23;20186;-86
2022/10/18 09:27:54;;;;;;;72.67;33.30;;;16.40;99.90;;;;;;6246705;23;20144;-88
2022/10/18 09:30:56;;;;;;;64.70;32.57;;;16.40;99.90;;;;;;6246561;23;20209;-86
2022/10/18 09:33:29;;;;;;;61.17;30.07;;;16.40;99.90;;;;;;6246546;23;20230;-87
2022/10/18 09:36:04;;;;;;;63.70;29.70;;;16.40;99.90;;;;;;6246171;23;20183;-86
2022/10/18 09:38:46;;;;;;;69.83;32.23;;;16.40;99.90;;;;;;6246340;23;20163;-88
2022/10/18 09:41:18;;;;;;;60.37;30.43;;;16.40;99.90;;;;;;6221324;23;20172;-88
2022/10/18 09:44:17;;;;;;;63.17;31.20;;;16.40;99.90;;;;;;6246333;23;20247;-88
2022/10/18 09:46:47;;;;;;;61.60;29.33;;;16.50;99.90;;;;;;6246611;23;20182;-88
2022/10/18 09:49:18;;;;;;;63.90;29.67;;;16.50;99.90;;;;;;6254858;23;20151;-87
2022/10/18 09:51:47;;;;;;;61.40;29.93;;;16.50;99.90;;;;;;6258876;23;20230;-87
2022/10/18 09:54:21;;;;;;;62.53;30.90;;;16.50;99.90;;;;;;6257558;23;20228;-87
2022/10/18 09:56:54;;;;;;;55.60;28.87;;;16.40;99.90;;;;;;6256513;23;20205;-87
2022/10/18 09:59:33;;;;;;;54.13;27.60;;;16.50;99.90;;;;;;6252970;22;20152;-87
2022/10/18 10:02:00;;;;;;;61.80;29.90;;;16.50;99.90;;;;;;6246589;23;20683;-87
2022/10/18 10:04:26;;;;;;;59.20;27.93;;;16.40;99.90;;;;;;6246555;23;20190;-86
2022/10/18 10:06:54;;;;;;;56.37;27.40;;;16.40;99.90;;;;;;6246814;23;20180;-86
2022/10/18 10:09:35;;;;;;;55.50;27.23;;;16.40;99.90;;;;;;6245957;23;20175;-86
2022/10/18 10:12:02;;;;;;;54.57;27.33;;;16.30;99.90;;;;;;6246390;23;20559;-87
2022/10/18 10:14:29;;;;;;;53.00;27.20;;;16.30;99.90;;;;;;6246485;23;20164;-89
2022/10/18 10:17:01;;;;;;;49.13;25.67;;;16.20;99.90;;;;;;6246102;23;20184;-88
2022/10/18 10:19:36;;;;;;;45.57;25.73;;;16.20;99.90;;;;;;6246506;23;20159;-87
2022/10/18 10:22:07;;;;;;;53.83;26.37;;;16.20;99.90;;;;;;6246270;23;20185;-86
2022/10/18 10:24:52;;;;;;;54.10;27.37;;;16.20;99.90;;;;;;6246305;23;20183;-87
2022/10/18 10:27:29;;;;;;;45.47;24.80;;;16.20;99.90;;;;;;6245813;23;20226;-86
2022/10/18 10:29:57;;;;;;;48.47;25.83;;;16.20;99.90;;;;;;6246343;23;20526;-87
2022/10/18 10:32:27;;;;;;;47.47;25.80;;;16.20;99.90;;;;;;6246250;23;20183;-88
2022/10/18 10:34:53;;;;;;;56.07;26.40;;;16.20;99.90;;;;;;6246212;23;20152;-86
2022/10/18 10:37:22;;;;;;;51.37;28.03;;;16.20;99.90;;;;;;6245756;23;20183;-87
2022/10/18 10:40:18;;;;;;;46.93;25.00;;;16.20;99.90;;;;;;6246000;23;20155;-86
2022/10/18 10:42:54;;;;;;;44.07;24.80;;;16.20;99.90;;;;;;6245968;23;20246;-87
2022/10/18 10:45:22;;;;;;;41.23;23.63;;;16.20;99.90;;;;;;6221271;23;20218;-87
2022/10/18 10:47:49;;;;;;;44.17;23.70;;;16.20;99.90;;;;;;6246006;23;20594;-88
2022/10/18 10:50:26;;;;;;;46.43;25.93;;;16.20;99.90;;;;;;6220679;23;20164;-88
2022/10/18 10:52:52;;;;;;;43.83;24.23;;;16.20;99.90;;;;;;6245916;23;20147;-87
2022/10/18 10:55:26;;;;;;;43.53;25.47;;;16.20;99.90;;;;;;6246039;23;20630;-85
2022/10/18 10:57:54;;;;;;;42.87;23.90;;;16.30;99.90;;;;;;6245746;23;20609;-87
2022/10/18 11:00:38;;;;;;;44.03;23.37;;;16.30;99.90;;;;;;6245906;23;20233;-87
2022/10/18 11:03:17;;;;;;;39.43;22.93;;;16.40;99.90;;;;;;6246599;23;20196;-85
2022/10/18 11:05:48;;;;;;;38.50;23.70;;;16.40;99.90;;;;;;6246462;23;20586;-88
2022/10/18 11:08:26;;;;;;;46.17;24.33;;;16.40;99.90;;;;;;6245750;23;20151;-87
2022/10/18 11:11:20;;;;;;;39.30;23.80;;;16.50;99.90;;;;;;6246003;23;20163;-87
2022/10/18 11:14:02;;;;;;;36.63;22.00;;;16.40;99.90;;;;;;6202067;23;20472;-85
2022/10/18 11:16:31;;;;;;;35.57;21.43;;;16.50;99.90;;;;;;6246992;23;20613;-88
2022/10/18 11:19:09;;;;;;;34.53;20.60;;;16.50;99.90;;;;;;6245345;23;20186;-88
2022/10/18 11:21:35;;;;;;;33.00;18.90;;;16.50;99.90;;;;;;6246495;23;20229;-88
2022/10/18 11:24:02;;;;;;;31.57;19.20;;;16.50;99.90;;;;;;6246036;23;20155;-89
2022/10/18 11:27:04;;;;;;;31.13;18.00;;;16.60;99.90;;;;;;6245792;23;20183;-89
2022/10/18 11:29:47;;;;;;;28.67;17.37;;;16.60;99.90;;;;;;6246144;23;20444;-86
2022/10/18 11:32:43;;;;;;;28.57;17.83;;;16.80;99.90;;;;;;6245259;23;20232;-87
2022/10/18 11:35:39;;;;;;;27.00;17.17;;;16.80;99.90;;;;;;6245722;23;20160;-86
2022/10/18 11:38:41;;;;;;;28.57;16.80;;;17.00;99.90;;;;;;6229615;23;20254;-85
2022/10/18 11:41:26;;;;;;;26.90;17.40;;;17.10;99.90;;;;;;6240476;23;20178;-88
2022/10/18 11:44:01;;;;;;;24.23;16.03;;;17.20;99.90;;;;;;6244861;23;20160;-86
2022/10/18 11:46:36;;;;;;;30.57;16.60;;;17.30;99.90;;;;;;6245006;23;20190;-85
2022/10/18 11:49:38;;;;;;;28.83;17.23;;;17.30;99.90;;;;;;6245065;23;20155;-88
2022/10/18 11:52:12;;;;;;;28.50;17.70;;;17.40;99.90;;;;;;6244868;23;20163;-86
2022/10/18 11:54:51;;;;;;;26.93;18.33;;;17.50;99.90;;;;;;6245092;23;20160;-86
2022/10/18 11:57:50;;;;;;;27.83;17.50;;;17.70;99.90;;;;;;6245077;23;20199;-85
2022/10/18 12:00:20;;;;;;;22.57;15.97;;;17.90;99.90;;;;;;6244843;23;20218;-86
2022/10/18 12:02:51;;;;;;;24.23;16.23;;;18.10;99.90;;;;;;6245257;23;20167;-86
2022/10/18 12:05:18;;;;;;;27.03;16.23;;;18.00;99.90;;;;;;6245724;23;20199;-87
2022/10/18 12:08:07;;;;;;;22.93;16.43;;;17.90;99.90;;;;;;6246868;22;20143;-86
2022/10/18 12:10:36;;;;;;;22.27;16.00;;;17.90;99.90;;;;;;6246427;22;20146;-88
2022/10/18 12:13:08;;;;;;;24.43;16.33;;;17.80;99.90;;;;;;6246847;22;20163;-85
2022/10/18 12:15:38;;;;;;;18.93;12.70;;;17.80;99.90;;;;;;6244979;23;20191;-85
2022/10/18 12:18:16;;;;;;;19.87;12.03;;;17.80;99.90;;;;;;6246869;22;20484;-87
2022/10/18 12:20:50;;;;;;;18.10;13.00;;;17.70;99.90;;;;;;6245236;23;20234;-85
2022/10/18 12:23:48;;;;;;;20.47;13.83;;;17.60;99.90;;;;;;6246681;22;20193;-87
2022/10/18 12:26:17;;;;;;;19.83;13.97;;;17.50;99.90;;;;;;6245182;23;20226;-85
2022/10/18 12:29:08;;;;;;;18.77;14.10;;;17.60;99.90;;;;;;6220925;23;20547;-87
2022/10/18 12:31:52;;;;;;;19.23;12.90;;;17.60;99.90;;;;;;6249249;22;20641;-87
2022/10/18 12:34:21;;;;;;;19.83;12.67;;;17.60;99.90;;;;;;6247137;23;20187;-87
2022/10/18 12:37:23;;;;;;;21.00;12.63;;;17.60;99.90;;;;;;6248190;22;20187;-87
2022/10/18 12:40:12;;;;;;;21.70;12.90;;;17.90;99.90;;;;;;6248862;23;20151;-86
2022/10/18 12:42:54;;;;;;;25.93;14.37;;;18.00;99.90;;;;;;6247211;23;20217;-88
2022/10/18 12:45:33;;;;;;;20.70;13.07;;;18.20;99.90;;;;;;6240856;22;20195;-47
2022/10/18 12:48:03;;;;;;;20.20;13.27;;;18.30;99.90;;;;;;6251524;22;20183;-46
2022/10/18 12:50:59;;;;;;;27.00;13.90;;;18.40;99.90;;;;;;6250436;22;20193;-47
2022/10/18 12:53:27;;;;;;;25.07;15.20;;;18.60;99.90;;;;;;6250010;23;20247;-47